sensor_id;sensor_type;location;lat;lon;timestamp;temperature;humidity
47022;DHT22;32779;52.264;6.154;2023-03-05T00:01:37;3.20;99.90
47022;DHT22;32779;52.264;6.154;2023-03-05T00:04:04;3.20;99.90
47022;DHT22;32779;52.264;6.154;2023-03-05T00:06:32;3.20;99.90
47022;DHT22;32779;52.264;6.154;2023-03-05T00:08:58;3.20;99.90
47022;DHT22;32779;52.264;6.154;2023-03-05T00:11:26;3.30;99.90
47022;DHT22;32779;52.264;6.154;2023-03-05T00:13:56;3.30;99.90
47022;DHT22;32779;52.264;6.154;2023-03-05T00:16:22;3.30;99.90
47022;DHT22;32779;52.264;6.154;2023-03-05T00:18:51;3.30;99.90
47022;DHT22;32779;52.264;6.154;2023-03-05T00:21:22;3.30;99.90
47022;DHT22;32779;52.264;6.154;2023-03-05T00:23:49;3.30;99.90
47022;DHT22;32779;52.264;6.154;2023-03-05T00:26:22;3.30;99.90
47022;DHT22;32779;52.264;6.154;2023-03-05T00:28:48;3.30;99.90
47022;DHT22;32779;52.264;6.154;2023-03-05T00:31:17;3.30;99.90
47022;DHT22;32779;52.264;6.154;2023-03-05T00:33:44;3.30;99.90
47022;DHT22;32779;52.264;6.154;2023-03-05T00:36:10;3.40;99.90
47022;DHT22;32779;52.264;6.154;2023-03-05T00:38:36;3.40;99.90
47022;DHT22;32779;52.264;6.154;2023-03-05T00:41:02;3.30;99.90
47022;DHT22;32779;52.264;6.154;2023-03-05T00:43:28;3.30;99.90
47022;DHT22;32779;52.264;6.154;2023-03-05T00:45:54;3.30;99.90
47022;DHT22;32779;52.264;6.154;2023-03-05T00:48:20;3.30;99.90
47022;DHT22;32779;52.264;6.154;2023-03-05T00:50:47;3.30;99.90
47022;DHT22;32779;52.264;6.154;2023-03-05T00:53:12;3.30;99.90
47022;DHT22;32779;52.264;6.154;2023-03-05T00:55:38;3.30;99.90
47022;DHT22;32779;52.264;6.154;2023-03-05T00:58:04;3.30;99.90
47022;DHT22;32779;52.264;6.154;2023-03-05T01:00:29;3.30;99.90
47022;DHT22;32779;52.264;6.154;2023-03-05T01:02:55;3.40;99.90
47022;DHT22;32779;52.264;6.154;2023-03-05T01:05:20;3.40;99.90
47022;DHT22;32779;52.264;6.154;2023-03-05T01:07:46;3.40;99.90
47022;DHT22;32779;52.264;6.154;2023-03-05T01:10:12;3.40;99.90
47022;DHT22;32779;52.264;6.154;2023-03-05T01:12:38;3.40;99.90
47022;DHT22;32779;52.264;6.154;2023-03-05T01:15:04;3.40;99.90
47022;DHT22;32779;52.264;6.154;2023-03-05T01:17:30;3.40;99.90
47022;DHT22;32779;52.264;6.154;2023-03-05T01:19:56;3.40;99.90
47022;DHT22;32779;52.264;6.154;2023-03-05T01:22:22;3.40;99.90
47022;DHT22;32779;52.264;6.154;2023-03-05T01:24:47;3.40;99.90
47022;DHT22;32779;52.264;6.154;2023-03-05T01:27:13;3.40;99.90
47022;DHT22;32779;52.264;6.154;2023-03-05T01:29:39;3.40;99.90
47022;DHT22;32779;52.264;6.154;2023-03-05T01:32:04;3.40;99.90
47022;DHT22;32779;52.264;6.154;2023-03-05T01:34:30;3.40;99.90
47022;DHT22;32779;52.264;6.154;2023-03-05T01:36:56;3.30;99.90
47022;DHT22;32779;52.264;6.154;2023-03-05T01:39:21;3.40;99.90
47022;DHT22;32779;52.264;6.154;2023-03-05T01:41:47;3.40;99.90
47022;DHT22;32779;52.264;6.154;2023-03-05T01:44:27;3.40;99.90
47022;DHT22;32779;52.264;6.154;2023-03-05T01:46:53;3.40;99.90
47022;DHT22;32779;52.264;6.154;2023-03-05T01:49:24;3.40;99.90
47022;DHT22;32779;52.264;6.154;2023-03-05T01:54:27;3.40;99.90
47022;DHT22;32779;52.264;6.154;2023-03-05T01:56:56;3.40;99.90
47022;DHT22;32779;52.264;6.154;2023-03-05T01:59:24;3.40;99.90
47022;DHT22;32779;52.264;6.154;2023-03-05T02:01:55;3.40;99.90
47022;DHT22;32779;52.264;6.154;2023-03-05T02:04:30;3.40;99.90
47022;DHT22;32779;52.264;6.154;2023-03-05T02:06:57;3.40;99.90
47022;DHT22;32779;52.264;6.154;2023-03-05T02:09:23;3.40;99.90
47022;DHT22;32779;52.264;6.154;2023-03-05T02:11:49;3.30;99.90
47022;DHT22;32779;52.264;6.154;2023-03-05T02:14:14;3.40;99.90
47022;DHT22;32779;52.264;6.154;2023-03-05T02:16:41;3.40;99.90
47022;DHT22;32779;52.264;6.154;2023-03-05T02:19:10;3.40;99.90
47022;DHT22;32779;52.264;6.154;2023-03-05T02:21:42;3.40;99.90
47022;DHT22;32779;52.264;6.154;2023-03-05T02:24:11;3.40;99.90
47022;DHT22;32779;52.264;6.154;2023-03-05T02:26:37;3.40;99.90
47022;DHT22;32779;52.264;6.154;2023-03-05T02:29:04;3.40;99.90
47022;DHT22;32779;52.264;6.154;2023-03-05T02:31:32;3.40;99.90
47022;DHT22;32779;52.264;6.154;2023-03-05T02:33:57;3.40;99.90
47022;DHT22;32779;52.264;6.154;2023-03-05T02:36:24;3.40;99.90
47022;DHT22;32779;52.264;6.154;2023-03-05T02:38:50;3.40;99.90
47022;DHT22;32779;52.264;6.154;2023-03-05T02:41:18;3.50;99.90
47022;DHT22;32779;52.264;6.154;2023-03-05T02:43:43;3.50;99.90
47022;DHT22;32779;52.264;6.154;2023-03-05T02:46:09;3.50;99.90
47022;DHT22;32779;52.264;6.154;2023-03-05T02:48:34;3.40;99.90
47022;DHT22;32779;52.264;6.154;2023-03-05T02:51:02;3.40;99.90
47022;DHT22;32779;52.264;6.154;2023-03-05T02:53:27;3.50;99.90
47022;DHT22;32779;52.264;6.154;2023-03-05T02:55:53;3.50;99.90
47022;DHT22;32779;52.264;6.154;2023-03-05T02:58:19;3.50;99.90
47022;DHT22;32779;52.264;6.154;2023-03-05T03:00:45;3.50;99.90
47022;DHT22;32779;52.264;6.154;2023-03-05T03:03:11;3.50;99.90
47022;DHT22;32779;52.264;6.154;2023-03-05T03:05:37;3.50;99.90
47022;DHT22;32779;52.264;6.154;2023-03-05T03:08:02;3.50;99.90
47022;DHT22;32779;52.264;6.154;2023-03-05T03:10:28;3.50;99.90
47022;DHT22;32779;52.264;6.154;2023-03-05T03:12:53;3.50;99.90
47022;DHT22;32779;52.264;6.154;2023-03-05T03:15:19;3.40;99.90
47022;DHT22;32779;52.264;6.154;2023-03-05T03:17:45;3.40;99.90
47022;DHT22;32779;52.264;6.154;2023-03-05T03:20:13;3.50;99.90
47022;DHT22;32779;52.264;6.154;2023-03-05T03:22:40;3.40;99.90
47022;DHT22;32779;52.264;6.154;2023-03-05T03:25:06;3.40;99.90
47022;DHT22;32779;52.264;6.154;2023-03-05T03:27:32;3.30;99.90
47022;DHT22;32779;52.264;6.154;2023-03-05T03:29:58;3.30;99.90
47022;DHT22;32779;52.264;6.154;2023-03-05T03:32:29;3.30;99.90
47022;DHT22;32779;52.264;6.154;2023-03-05T03:34:55;3.30;99.90
47022;DHT22;32779;52.264;6.154;2023-03-05T03:37:21;3.40;99.90
47022;DHT22;32779;52.264;6.154;2023-03-05T03:39:47;3.30;99.90
47022;DHT22;32779;52.264;6.154;2023-03-05T03:42:16;3.30;99.90
47022;DHT22;32779;52.264;6.154;2023-03-05T03:44:42;3.30;99.90
47022;DHT22;32779;52.264;6.154;2023-03-05T03:47:08;3.30;99.90
47022;DHT22;32779;52.264;6.154;2023-03-05T03:49:33;3.30;99.90
47022;DHT22;32779;52.264;6.154;2023-03-05T03:51:59;3.30;99.90
47022;DHT22;32779;52.264;6.154;2023-03-05T03:54:24;3.30;99.90
47022;DHT22;32779;52.264;6.154;2023-03-05T03:56:50;3.30;99.90
47022;DHT22;32779;52.264;6.154;2023-03-05T03:59:17;3.20;99.90
47022;DHT22;32779;52.264;6.154;2023-03-05T04:01:42;3.20;99.90
47022;DHT22;32779;52.264;6.154;2023-03-05T04:04:09;3.20;99.90
47022;DHT22;32779;52.264;6.154;2023-03-05T04:06:36;3.30;99.90
47022;DHT22;32779;52.264;6.154;2023-03-05T04:09:02;3.30;99.90
47022;DHT22;32779;52.264;6.154;2023-03-05T04:11:28;3.30;99.90
47022;DHT22;32779;52.264;6.154;2023-03-05T04:13:53;3.30;99.90
47022;DHT22;32779;52.264;6.154;2023-03-05T04:16:19;3.30;99.90
47022;DHT22;32779;52.264;6.154;2023-03-05T04:18:44;3.40;99.90
47022;DHT22;32779;52.264;6.154;2023-03-05T04:21:10;3.30;99.90
47022;DHT22;32779;52.264;6.154;2023-03-05T04:23:37;3.30;99.90
47022;DHT22;32779;52.264;6.154;2023-03-05T04:26:02;3.30;99.90
47022;DHT22;32779;52.264;6.154;2023-03-05T04:28:28;3.30;99.90
47022;DHT22;32779;52.264;6.154;2023-03-05T04:30:54;3.30;99.90
47022;DHT22;32779;52.264;6.154;2023-03-05T04:33:19;3.20;99.90
47022;DHT22;32779;52.264;6.154;2023-03-05T04:35:45;3.30;99.90
47022;DHT22;32779;52.264;6.154;2023-03-05T04:38:11;3.30;99.90
47022;DHT22;32779;52.264;6.154;2023-03-05T04:40:37;3.30;99.90
47022;DHT22;32779;52.264;6.154;2023-03-05T04:43:03;3.30;99.90
47022;DHT22;32779;52.264;6.154;2023-03-05T04:45:29;3.30;99.90
47022;DHT22;32779;52.264;6.154;2023-03-05T04:47:54;3.30;99.90
47022;DHT22;32779;52.264;6.154;2023-03-05T04:50:20;3.30;99.90
47022;DHT22;32779;52.264;6.154;2023-03-05T04:52:46;3.30;99.90
47022;DHT22;32779;52.264;6.154;2023-03-05T04:55:13;3.20;99.90
47022;DHT22;32779;52.264;6.154;2023-03-05T04:57:39;3.30;99.90
47022;DHT22;32779;52.264;6.154;2023-03-05T05:00:09;3.30;99.90
47022;DHT22;32779;52.264;6.154;2023-03-05T05:02:43;3.30;99.90
47022;DHT22;32779;52.264;6.154;2023-03-05T05:05:12;3.20;99.90
47022;DHT22;32779;52.264;6.154;2023-03-05T05:07:38;3.20;99.90
47022;DHT22;32779;52.264;6.154;2023-03-05T05:10:04;3.30;99.90
47022;DHT22;32779;52.264;6.154;2023-03-05T05:12:30;3.30;99.90
47022;DHT22;32779;52.264;6.154;2023-03-05T05:14:57;3.30;99.90
47022;DHT22;32779;52.264;6.154;2023-03-05T05:17:22;3.30;99.90
47022;DHT22;32779;52.264;6.154;2023-03-05T05:19:48;3.20;99.90
47022;DHT22;32779;52.264;6.154;2023-03-05T05:22:14;3.20;99.90
47022;DHT22;32779;52.264;6.154;2023-03-05T05:24:40;3.20;99.90
47022;DHT22;32779;52.264;6.154;2023-03-05T05:27:05;3.20;99.90
47022;DHT22;32779;52.264;6.154;2023-03-05T05:29:31;3.20;99.90
47022;DHT22;32779;52.264;6.154;2023-03-05T05:31:56;3.20;99.90
47022;DHT22;32779;52.264;6.154;2023-03-05T05:34:22;3.20;99.90
47022;DHT22;32779;52.264;6.154;2023-03-05T05:36:49;3.20;99.90
47022;DHT22;32779;52.264;6.154;2023-03-05T05:39:15;3.20;99.90
47022;DHT22;32779;52.264;6.154;2023-03-05T05:41:40;3.20;99.90
47022;DHT22;32779;52.264;6.154;2023-03-05T05:44:06;3.20;99.90
47022;DHT22;32779;52.264;6.154;2023-03-05T05:46:32;3.20;99.90
47022;DHT22;32779;52.264;6.154;2023-03-05T05:48:57;3.20;99.90
47022;DHT22;32779;52.264;6.154;2023-03-05T05:51:23;3.20;99.90
47022;DHT22;32779;52.264;6.154;2023-03-05T05:53:49;3.20;99.90
47022;DHT22;32779;52.264;6.154;2023-03-05T05:56:15;3.20;99.90
47022;DHT22;32779;52.264;6.154;2023-03-05T05:58:41;3.20;99.90
47022;DHT22;32779;52.264;6.154;2023-03-05T06:01:19;3.20;99.90
47022;DHT22;32779;52.264;6.154;2023-03-05T06:03:45;3.20;99.90
47022;DHT22;32779;52.264;6.154;2023-03-05T06:06:13;3.20;99.90
47022;DHT22;32779;52.264;6.154;2023-03-05T06:08:40;3.10;99.90
47022;DHT22;32779;52.264;6.154;2023-03-05T06:11:06;3.10;99.90
47022;DHT22;32779;52.264;6.154;2023-03-05T06:13:32;3.10;99.90
47022;DHT22;32779;52.264;6.154;2023-03-05T06:15:59;3.10;99.90
47022;DHT22;32779;52.264;6.154;2023-03-05T06:18:25;3.10;99.90
47022;DHT22;32779;52.264;6.154;2023-03-05T06:21:00;3.10;99.90
47022;DHT22;32779;52.264;6.154;2023-03-05T06:23:27;3.10;99.90
47022;DHT22;32779;52.264;6.154;2023-03-05T06:25:52;3.10;99.90
47022;DHT22;32779;52.264;6.154;2023-03-05T06:28:18;3.10;99.90
47022;DHT22;32779;52.264;6.154;2023-03-05T06:30:44;3.10;99.90
47022;DHT22;32779;52.264;6.154;2023-03-05T06:33:10;3.10;99.90
47022;DHT22;32779;52.264;6.154;2023-03-05T06:35:39;3.10;99.90
47022;DHT22;32779;52.264;6.154;2023-03-05T06:38:06;3.10;99.90
47022;DHT22;32779;52.264;6.154;2023-03-05T06:40:32;3.10;99.90
47022;DHT22;32779;52.264;6.154;2023-03-05T06:42:57;3.10;99.90
47022;DHT22;32779;52.264;6.154;2023-03-05T06:45:23;3.10;99.90
47022;DHT22;32779;52.264;6.154;2023-03-05T06:47:48;3.00;99.90
47022;DHT22;32779;52.264;6.154;2023-03-05T06:50:14;3.00;99.90
47022;DHT22;32779;52.264;6.154;2023-03-05T06:52:40;3.00;99.90
47022;DHT22;32779;52.264;6.154;2023-03-05T06:55:06;3.00;99.90
47022;DHT22;32779;52.264;6.154;2023-03-05T06:57:32;3.00;99.90
47022;DHT22;32779;52.264;6.154;2023-03-05T06:59:58;3.00;99.90
47022;DHT22;32779;52.264;6.154;2023-03-05T07:02:24;3.10;99.90
47022;DHT22;32779;52.264;6.154;2023-03-05T07:04:50;3.00;99.90
47022;DHT22;32779;52.264;6.154;2023-03-05T07:07:15;3.10;99.90
47022;DHT22;32779;52.264;6.154;2023-03-05T07:09:41;3.10;99.90
47022;DHT22;32779;52.264;6.154;2023-03-05T07:12:10;3.20;99.90
47022;DHT22;32779;52.264;6.154;2023-03-05T07:14:36;3.20;99.90
47022;DHT22;32779;52.264;6.154;2023-03-05T07:17:03;3.30;99.90
47022;DHT22;32779;52.264;6.154;2023-03-05T07:19:29;3.30;99.90
47022;DHT22;32779;52.264;6.154;2023-03-05T07:21:54;3.40;99.90
47022;DHT22;32779;52.264;6.154;2023-03-05T07:24:20;3.40;99.90
47022;DHT22;32779;52.264;6.154;2023-03-05T07:26:45;3.40;99.90
47022;DHT22;32779;52.264;6.154;2023-03-05T07:29:11;3.40;99.90
47022;DHT22;32779;52.264;6.154;2023-03-05T07:31:37;3.50;99.90
47022;DHT22;32779;52.264;6.154;2023-03-05T07:34:03;3.50;99.90
47022;DHT22;32779;52.264;6.154;2023-03-05T07:36:29;3.50;99.90
47022;DHT22;32779;52.264;6.154;2023-03-05T07:38:55;3.50;99.90
47022;DHT22;32779;52.264;6.154;2023-03-05T07:41:20;3.50;99.90
47022;DHT22;32779;52.264;6.154;2023-03-05T07:43:50;3.60;99.90
47022;DHT22;32779;52.264;6.154;2023-03-05T07:46:18;3.60;99.90
47022;DHT22;32779;52.264;6.154;2023-03-05T07:48:44;3.60;99.90
47022;DHT22;32779;52.264;6.154;2023-03-05T07:51:14;3.60;99.90
47022;DHT22;32779;52.264;6.154;2023-03-05T07:53:41;3.70;99.90
47022;DHT22;32779;52.264;6.154;2023-03-05T07:56:07;3.70;99.90
47022;DHT22;32779;52.264;6.154;2023-03-05T07:58:32;3.80;99.90
47022;DHT22;32779;52.264;6.154;2023-03-05T08:00:58;3.80;99.90
47022;DHT22;32779;52.264;6.154;2023-03-05T08:03:24;3.80;99.90
47022;DHT22;32779;52.264;6.154;2023-03-05T08:05:49;3.90;99.90
47022;DHT22;32779;52.264;6.154;2023-03-05T08:08:15;3.90;99.90
47022;DHT22;32779;52.264;6.154;2023-03-05T08:10:40;4.00;99.90
47022;DHT22;32779;52.264;6.154;2023-03-05T08:13:06;4.00;99.90
47022;DHT22;32779;52.264;6.154;2023-03-05T08:15:32;4.10;99.90
47022;DHT22;32779;52.264;6.154;2023-03-05T08:17:58;4.10;99.90
47022;DHT22;32779;52.264;6.154;2023-03-05T08:20:24;4.20;99.90
47022;DHT22;32779;52.264;6.154;2023-03-05T08:22:50;4.10;99.90
47022;DHT22;32779;52.264;6.154;2023-03-05T08:25:16;4.30;99.90
47022;DHT22;32779;52.264;6.154;2023-03-05T08:27:43;4.30;99.90
47022;DHT22;32779;52.264;6.154;2023-03-05T08:30:12;4.30;99.90
47022;DHT22;32779;52.264;6.154;2023-03-05T08:32:38;4.40;99.90
47022;DHT22;32779;52.264;6.154;2023-03-05T08:35:05;4.40;99.90
47022;DHT22;32779;52.264;6.154;2023-03-05T08:37:32;4.50;99.90
47022;DHT22;32779;52.264;6.154;2023-03-05T08:39:57;4.60;99.90
47022;DHT22;32779;52.264;6.154;2023-03-05T08:42:24;4.70;99.90
47022;DHT22;32779;52.264;6.154;2023-03-05T08:44:50;4.70;99.90
47022;DHT22;32779;52.264;6.154;2023-03-05T08:47:16;4.90;99.90
47022;DHT22;32779;52.264;6.154;2023-03-05T08:49:43;5.00;99.90
47022;DHT22;32779;52.264;6.154;2023-03-05T08:52:08;5.00;99.90
47022;DHT22;32779;52.264;6.154;2023-03-05T08:54:35;5.10;99.90
47022;DHT22;32779;52.264;6.154;2023-03-05T08:57:01;5.00;99.90
47022;DHT22;32779;52.264;6.154;2023-03-05T08:59:27;5.00;99.90
47022;DHT22;32779;52.264;6.154;2023-03-05T09:01:53;5.00;99.90
47022;DHT22;32779;52.264;6.154;2023-03-05T09:04:19;5.10;99.90
47022;DHT22;32779;52.264;6.154;2023-03-05T09:06:44;5.10;99.90
47022;DHT22;32779;52.264;6.154;2023-03-05T09:09:10;5.20;99.90
47022;DHT22;32779;52.264;6.154;2023-03-05T09:11:36;5.40;99.90
47022;DHT22;32779;52.264;6.154;2023-03-05T09:14:03;5.50;99.90
47022;DHT22;32779;52.264;6.154;2023-03-05T09:16:28;5.60;99.90
47022;DHT22;32779;52.264;6.154;2023-03-05T09:18:54;5.60;99.90
47022;DHT22;32779;52.264;6.154;2023-03-05T09:21:20;5.70;99.90
47022;DHT22;32779;52.264;6.154;2023-03-05T09:23:46;5.80;99.90
47022;DHT22;32779;52.264;6.154;2023-03-05T09:26:13;5.80;99.90
47022;DHT22;32779;52.264;6.154;2023-03-05T09:28:40;5.90;99.90
47022;DHT22;32779;52.264;6.154;2023-03-05T09:31:07;5.90;99.90
47022;DHT22;32779;52.264;6.154;2023-03-05T09:33:33;5.90;99.90
47022;DHT22;32779;52.264;6.154;2023-03-05T09:36:00;5.90;99.90
47022;DHT22;32779;52.264;6.154;2023-03-05T09:38:26;6.00;99.90
47022;DHT22;32779;52.264;6.154;2023-03-05T09:41:00;6.00;99.90
47022;DHT22;32779;52.264;6.154;2023-03-05T09:43:46;6.00;99.90
47022;DHT22;32779;52.264;6.154;2023-03-05T09:46:27;6.10;99.90
47022;DHT22;32779;52.264;6.154;2023-03-05T09:49:29;6.20;99.90
47022;DHT22;32779;52.264;6.154;2023-03-05T09:52:02;6.30;99.90
47022;DHT22;32779;52.264;6.154;2023-03-05T09:54:42;6.20;99.90
47022;DHT22;32779;52.264;6.154;2023-03-05T09:57:35;6.20;99.90
47022;DHT22;32779;52.264;6.154;2023-03-05T10:00:10;6.20;99.90
47022;DHT22;32779;52.264;6.154;2023-03-05T10:02:48;6.30;99.90
47022;DHT22;32779;52.264;6.154;2023-03-05T10:05:20;6.30;99.90
47022;DHT22;32779;52.264;6.154;2023-03-05T10:08:00;6.30;99.90
47022;DHT22;32779;52.264;6.154;2023-03-05T10:10:40;6.40;99.90
47022;DHT22;32779;52.264;6.154;2023-03-05T10:13:29;6.40;99.90
47022;DHT22;32779;52.264;6.154;2023-03-05T10:19:12;6.40;99.90
47022;DHT22;32779;52.264;6.154;2023-03-05T10:24:55;6.40;99.90
47022;DHT22;32779;52.264;6.154;2023-03-05T10:27:30;6.40;99.90
47022;DHT22;32779;52.264;6.154;2023-03-05T10:30:07;6.40;99.90
47022;DHT22;32779;52.264;6.154;2023-03-05T10:40:54;6.80;99.90
47022;DHT22;32779;52.264;6.154;2023-03-05T10:43:32;7.00;99.90
47022;DHT22;32779;52.264;6.154;2023-03-05T10:46:02;7.00;99.90
47022;DHT22;32779;52.264;6.154;2023-03-05T10:49:03;7.10;99.90
47022;DHT22;32779;52.264;6.154;2023-03-05T10:51:43;7.10;99.90
47022;DHT22;32779;52.264;6.154;2023-03-05T10:54:28;7.00;99.90
47022;DHT22;32779;52.264;6.154;2023-03-05T11:00:38;7.10;99.90
47022;DHT22;32779;52.264;6.154;2023-03-05T11:03:00;6.70;99.90
47022;DHT22;32779;52.264;6.154;2023-03-05T11:05:42;6.40;99.90
47022;DHT22;32779;52.264;6.154;2023-03-05T11:08:24;6.20;99.90
47022;DHT22;32779;52.264;6.154;2023-03-05T11:14:04;5.90;99.90
47022;DHT22;32779;52.264;6.154;2023-03-05T11:16:31;5.90;99.90
47022;DHT22;32779;52.264;6.154;2023-03-05T11:21:44;5.80;99.90
47022;DHT22;32779;52.264;6.154;2023-03-05T11:24:18;5.80;99.90
47022;DHT22;32779;52.264;6.154;2023-03-05T11:26:53;5.80;99.90
47022;DHT22;32779;52.264;6.154;2023-03-05T11:29:22;5.80;99.90
47022;DHT22;32779;52.264;6.154;2023-03-05T11:31:49;5.80;99.90
47022;DHT22;32779;52.264;6.154;2023-03-05T11:37:00;5.90;99.90
47022;DHT22;32779;52.264;6.154;2023-03-05T11:39:29;5.90;99.90
47022;DHT22;32779;52.264;6.154;2023-03-05T11:42:19;5.90;99.90
47022;DHT22;32779;52.264;6.154;2023-03-05T11:44:55;5.90;99.90
47022;DHT22;32779;52.264;6.154;2023-03-05T11:50:26;6.00;99.90
47022;DHT22;32779;52.264;6.154;2023-03-05T11:53:12;6.10;99.90
47022;DHT22;32779;52.264;6.154;2023-03-05T11:56:03;6.10;99.90
47022;DHT22;32779;52.264;6.154;2023-03-05T11:58:43;6.20;99.90
47022;DHT22;32779;52.264;6.154;2023-03-05T12:01:19;6.30;99.90
47022;DHT22;32779;52.264;6.154;2023-03-05T12:03:45;6.40;99.90
47022;DHT22;32779;52.264;6.154;2023-03-05T12:06:34;6.50;99.90
47022;DHT22;32779;52.264;6.154;2023-03-05T12:09:48;6.60;99.90
47022;DHT22;32779;52.264;6.154;2023-03-05T12:11:57;6.70;99.90
47022;DHT22;32779;52.264;6.154;2023-03-05T12:14:43;6.80;99.90
47022;DHT22;32779;52.264;6.154;2023-03-05T12:17:24;6.90;99.90
47022;DHT22;32779;52.264;6.154;2023-03-05T12:22:43;7.10;99.90
47022;DHT22;32779;52.264;6.154;2023-03-05T12:31:34;7.20;99.90
47022;DHT22;32779;52.264;6.154;2023-03-05T12:37:11;7.20;99.90
47022;DHT22;32779;52.264;6.154;2023-03-05T12:47:37;7.30;99.90
47022;DHT22;32779;52.264;6.154;2023-03-05T12:50:04;7.30;99.90
47022;DHT22;32779;52.264;6.154;2023-03-05T12:52:32;7.30;99.90
47022;DHT22;32779;52.264;6.154;2023-03-05T12:55:21;7.20;99.90
47022;DHT22;32779;52.264;6.154;2023-03-05T12:57:57;7.10;99.90
47022;DHT22;32779;52.264;6.154;2023-03-05T13:00:24;6.90;99.90
47022;DHT22;32779;52.264;6.154;2023-03-05T13:02:56;6.90;99.90
47022;DHT22;32779;52.264;6.154;2023-03-05T13:05:30;6.80;99.90
47022;DHT22;32779;52.264;6.154;2023-03-05T13:08:26;6.90;99.90
47022;DHT22;32779;52.264;6.154;2023-03-05T13:11:14;6.80;99.90
47022;DHT22;32779;52.264;6.154;2023-03-05T13:13:42;6.90;99.90
47022;DHT22;32779;52.264;6.154;2023-03-05T13:16:36;6.90;99.90
47022;DHT22;32779;52.264;6.154;2023-03-05T13:19:03;6.90;99.90
47022;DHT22;32779;52.264;6.154;2023-03-05T13:21:32;6.90;99.90
47022;DHT22;32779;52.264;6.154;2023-03-05T13:24:01;7.00;99.90
47022;DHT22;32779;52.264;6.154;2023-03-05T13:26:29;7.00;99.90
47022;DHT22;32779;52.264;6.154;2023-03-05T13:29:07;7.00;99.90
47022;DHT22;32779;52.264;6.154;2023-03-05T13:31:35;7.00;99.90
47022;DHT22;32779;52.264;6.154;2023-03-05T13:34:18;6.90;99.90
47022;DHT22;32779;52.264;6.154;2023-03-05T13:36:56;6.90;99.90
47022;DHT22;32779;52.264;6.154;2023-03-05T13:40:18;6.90;99.90
47022;DHT22;32779;52.264;6.154;2023-03-05T13:42:29;6.90;99.90
47022;DHT22;32779;52.264;6.154;2023-03-05T13:45:15;6.90;99.90
47022;DHT22;32779;52.264;6.154;2023-03-05T13:47:57;7.00;99.90
47022;DHT22;32779;52.264;6.154;2023-03-05T13:50:26;7.10;99.90
47022;DHT22;32779;52.264;6.154;2023-03-05T13:52:52;7.10;99.90
47022;DHT22;32779;52.264;6.154;2023-03-05T13:55:18;7.20;99.90
47022;DHT22;32779;52.264;6.154;2023-03-05T13:57:51;7.30;99.90
47022;DHT22;32779;52.264;6.154;2023-03-05T14:02:53;7.40;99.90
47022;DHT22;32779;52.264;6.154;2023-03-05T14:05:19;7.40;99.90
47022;DHT22;32779;52.264;6.154;2023-03-05T14:07:48;7.40;99.90
47022;DHT22;32779;52.264;6.154;2023-03-05T14:12:56;7.40;99.90
47022;DHT22;32779;52.264;6.154;2023-03-05T14:15:26;7.50;99.90
47022;DHT22;32779;52.264;6.154;2023-03-05T14:18:12;7.60;99.90
47022;DHT22;32779;52.264;6.154;2023-03-05T14:20:59;7.60;99.90
47022;DHT22;32779;52.264;6.154;2023-03-05T14:26:21;7.70;99.90
47022;DHT22;32779;52.264;6.154;2023-03-05T14:28:53;7.70;99.90
47022;DHT22;32779;52.264;6.154;2023-03-05T14:31:19;7.70;99.90
47022;DHT22;32779;52.264;6.154;2023-03-05T14:33:46;7.70;99.90
47022;DHT22;32779;52.264;6.154;2023-03-05T14:36:12;7.70;99.90
47022;DHT22;32779;52.264;6.154;2023-03-05T14:38:40;7.70;99.90
47022;DHT22;32779;52.264;6.154;2023-03-05T14:41:38;7.60;99.90
47022;DHT22;32779;52.264;6.154;2023-03-05T14:44:12;7.60;99.90
47022;DHT22;32779;52.264;6.154;2023-03-05T14:46:39;7.60;99.90
47022;DHT22;32779;52.264;6.154;2023-03-05T14:49:04;7.50;99.90
47022;DHT22;32779;52.264;6.154;2023-03-05T14:51:36;7.50;99.90
47022;DHT22;32779;52.264;6.154;2023-03-05T14:54:02;7.50;99.90
47022;DHT22;32779;52.264;6.154;2023-03-05T14:56:28;7.50;99.90
47022;DHT22;32779;52.264;6.154;2023-03-05T14:58:54;7.40;99.90
47022;DHT22;32779;52.264;6.154;2023-03-05T15:01:22;7.40;99.90
47022;DHT22;32779;52.264;6.154;2023-03-05T15:03:49;7.40;99.90
47022;DHT22;32779;52.264;6.154;2023-03-05T15:06:24;7.30;99.90
47022;DHT22;32779;52.264;6.154;2023-03-05T15:08:53;7.30;99.90
47022;DHT22;32779;52.264;6.154;2023-03-05T15:11:19;7.20;99.90
47022;DHT22;32779;52.264;6.154;2023-03-05T15:13:47;7.20;99.90
47022;DHT22;32779;52.264;6.154;2023-03-05T15:16:14;7.20;99.90
47022;DHT22;32779;52.264;6.154;2023-03-05T15:18:41;7.20;99.90
47022;DHT22;32779;52.264;6.154;2023-03-05T15:21:07;7.20;99.90
47022;DHT22;32779;52.264;6.154;2023-03-05T15:23:32;7.20;99.90
47022;DHT22;32779;52.264;6.154;2023-03-05T15:26:06;7.20;99.90
47022;DHT22;32779;52.264;6.154;2023-03-05T15:28:36;7.10;99.90
47022;DHT22;32779;52.264;6.154;2023-03-05T15:31:03;7.20;99.90
47022;DHT22;32779;52.264;6.154;2023-03-05T15:33:29;7.20;99.90
47022;DHT22;32779;52.264;6.154;2023-03-05T15:35:55;7.10;99.90
47022;DHT22;32779;52.264;6.154;2023-03-05T15:38:21;7.10;99.90
47022;DHT22;32779;52.264;6.154;2023-03-05T15:40:47;7.10;99.90
47022;DHT22;32779;52.264;6.154;2023-03-05T15:43:13;7.10;99.90
47022;DHT22;32779;52.264;6.154;2023-03-05T15:45:39;7.10;99.90
47022;DHT22;32779;52.264;6.154;2023-03-05T15:48:05;7.10;99.90
47022;DHT22;32779;52.264;6.154;2023-03-05T15:50:30;7.10;99.90
47022;DHT22;32779;52.264;6.154;2023-03-05T15:52:57;7.10;99.90
47022;DHT22;32779;52.264;6.154;2023-03-05T15:55:22;7.00;99.90
47022;DHT22;32779;52.264;6.154;2023-03-05T15:57:50;7.00;99.90
47022;DHT22;32779;52.264;6.154;2023-03-05T16:00:28;6.90;99.90
47022;DHT22;32779;52.264;6.154;2023-03-05T16:02:54;6.90;99.90
47022;DHT22;32779;52.264;6.154;2023-03-05T16:05:20;6.90;99.90
47022;DHT22;32779;52.264;6.154;2023-03-05T16:07:46;6.80;99.90
47022;DHT22;32779;52.264;6.154;2023-03-05T16:10:15;6.80;99.90
47022;DHT22;32779;52.264;6.154;2023-03-05T16:12:42;6.70;99.90
47022;DHT22;32779;52.264;6.154;2023-03-05T16:15:10;6.70;99.90
47022;DHT22;32779;52.264;6.154;2023-03-05T16:17:39;6.60;99.90
47022;DHT22;32779;52.264;6.154;2023-03-05T16:20:06;6.60;99.90
47022;DHT22;32779;52.264;6.154;2023-03-05T16:22:32;6.60;99.90
47022;DHT22;32779;52.264;6.154;2023-03-05T16:24:57;6.50;99.90
47022;DHT22;32779;52.264;6.154;2023-03-05T16:27:25;6.60;99.90
47022;DHT22;32779;52.264;6.154;2023-03-05T16:29:51;6.50;99.90
47022;DHT22;32779;52.264;6.154;2023-03-05T16:32:17;6.50;99.90
47022;DHT22;32779;52.264;6.154;2023-03-05T16:34:42;6.50;99.90
47022;DHT22;32779;52.264;6.154;2023-03-05T16:37:08;6.50;99.90
47022;DHT22;32779;52.264;6.154;2023-03-05T16:39:34;6.40;99.90
47022;DHT22;32779;52.264;6.154;2023-03-05T16:41:59;6.40;99.90
47022;DHT22;32779;52.264;6.154;2023-03-05T16:44:25;6.40;99.90
47022;DHT22;32779;52.264;6.154;2023-03-05T16:46:51;6.40;99.90
47022;DHT22;32779;52.264;6.154;2023-03-05T16:49:21;6.40;99.90
47022;DHT22;32779;52.264;6.154;2023-03-05T16:51:47;6.30;99.90
47022;DHT22;32779;52.264;6.154;2023-03-05T16:54:13;6.30;99.90
47022;DHT22;32779;52.264;6.154;2023-03-05T16:56:39;6.20;99.90